Time;durP1;ratioP1;P1;durP2;ratioP2;P2;SDS_P1;SDS_P2;PMS_P1;PMS_P2;Temp;Humidity;BMP_temperature;BMP_pressure;BME280_temperature;BME280_humidity;BME280_pressure;Samples;Min_cycle;Max_cycle;Signal;HPM_P1;HPM_P2
2023/06/13 00:02:03;;;;;;;1999.90;999.90;;;19.50;99.90;;;;;;5051299;28;20068;-70
2023/06/13 00:04:30;;;;;;;1999.90;999.90;;;18.80;99.90;;;;;;5052179;28;20025;-69
2023/06/13 00:06:58;;;;;;;1999.90;999.90;;;18.30;99.90;;;;;;5051403;28;20036;-69
2023/06/13 00:09:28;;;;;;;1999.90;999.90;;;18.20;99.90;;;;;;5054608;28;20024;-71
2023/06/13 00:11:56;;;;;;;1999.90;999.90;;;18.20;99.90;;;;;;5057779;28;20017;-73
2023/06/13 00:14:24;;;;;;;1999.90;999.90;;;17.90;99.90;;;;;;5058661;28;20170;-71
2023/06/13 00:16:51;;;;;;;1999.90;999.90;;;17.40;99.90;;;;;;5060068;28;20029;-72
2023/06/13 00:19:19;;;;;;;1999.90;999.90;;;17.10;99.90;;;;;;5063171;28;20040;-72
2023/06/13 00:21:46;;;;;;;1999.90;999.90;;;16.80;99.90;;;;;;5060681;28;20067;-72
2023/06/13 00:24:14;;;;;;;1999.90;999.90;;;16.70;99.90;;;;;;5062483;28;20098;-71
2023/06/13 00:26:41;;;;;;;1999.90;999.90;;;16.50;99.90;;;;;;5062674;28;20040;-70
2023/06/13 00:29:09;;;;;;;1999.90;999.90;;;16.40;99.90;;;;;;5052679;28;20604;-70
2023/06/13 00:31:36;;;;;;;1999.90;999.90;;;16.50;99.90;;;;;;5056729;28;20062;-70
2023/06/13 00:34:03;;;;;;;1999.90;999.90;;;16.50;99.90;;;;;;5053502;28;20032;-69
2023/06/13 00:36:33;;;;;;;1999.90;999.90;;;16.40;99.90;;;;;;5060914;28;20052;-69
2023/06/13 00:39:01;;;;;;;1999.90;999.90;;;16.30;99.90;;;;;;5051942;28;20115;-70
2023/06/13 00:41:32;;;;;;;1999.90;999.90;;;16.40;99.90;;;;;;5061501;28;20055;-70
2023/06/13 00:44:00;;;;;;;1999.90;999.90;;;16.80;99.90;;;;;;5055699;28;20036;-70
2023/06/13 00:46:34;;;;;;;1999.90;999.90;;;17.30;99.90;;;;;;5062085;28;20040;-71
2023/06/13 00:49:03;;;;;;;1999.90;999.90;;;17.60;99.90;;;;;;5056200;28;20037;-69
2023/06/13 00:51:35;;;;;;;1999.90;999.90;;;17.50;99.90;;;;;;5065233;28;20060;-70
2023/06/13 00:54:06;;;;;;;1999.90;999.90;;;17.20;99.90;;;;;;5056852;28;20562;-70
2023/06/13 00:56:36;;;;;;;1999.90;999.90;;;16.90;99.90;;;;;;5056592;28;20862;-70
2023/06/13 00:59:05;;;;;;;1999.90;999.90;;;16.80;99.90;;;;;;5051616;28;20035;-70
2023/06/13 01:01:32;;;;;;;1999.90;999.90;;;16.50;99.90;;;;;;5061436;28;20083;-70
2023/06/13 01:04:04;;;;;;;1999.90;999.90;;;16.30;99.90;;;;;;5049681;28;20029;-69
2023/06/13 01:06:33;;;;;;;1999.90;999.90;;;16.20;99.90;;;;;;5059022;28;20124;-71
2023/06/13 01:09:02;;;;;;;1999.90;999.90;;;16.20;99.90;;;;;;5052955;28;20029;-71
2023/06/13 01:11:38;;;;;;;1999.90;999.90;;;16.30;99.90;;;;;;5059694;28;20025;-70
2023/06/13 01:14:20;;;;;;;1999.90;999.90;;;16.30;99.90;;;;;;5053552;28;20029;-69
2023/06/13 01:16:54;;;;;;;1999.90;999.90;;;16.70;99.90;;;;;;5054094;28;20085;-69
2023/06/13 01:19:34;;;;;;;1999.90;999.90;;;17.00;99.90;;;;;;5041816;28;20328;-68
2023/06/13 01:22:04;;;;;;;1999.90;999.90;;;18.40;99.90;;;;;;5053748;28;20103;-70
2023/06/13 01:24:58;;;;;;;1999.90;999.90;;;20.00;99.90;;;;;;5047625;28;20051;-68
2023/06/13 01:27:27;;;;;;;1999.90;999.90;;;20.70;99.90;;;;;;5052317;28;20036;-68
2023/06/13 01:29:56;;;;;;;1999.90;999.90;;;21.60;99.90;;;;;;5047455;28;20025;-69
2023/06/13 01:32:25;;;;;;;1999.90;999.90;;;22.60;98.60;;;;;;5058499;28;20029;-70
2023/06/13 01:34:52;;;;;;;1999.90;999.90;;;22.40;98.20;;;;;;5056509;28;20032;-70
2023/06/13 01:37:20;;;;;;;1999.90;999.90;;;21.90;98.60;;;;;;5059198;28;20399;-69
2023/06/13 01:39:47;;;;;;;1999.90;999.90;;;22.30;99.40;;;;;;5051984;28;20020;-68
2023/06/13 01:42:15;;;;;;;1999.90;999.90;;;22.90;97.90;;;;;;5055001;28;20024;-69
2023/06/13 01:44:45;;;;;;;1999.90;999.90;;;22.70;97.90;;;;;;5054900;28;20048;-69
2023/06/13 01:47:43;;;;;;;1999.90;999.90;;;23.10;97.90;;;;;;5049036;28;20041;-70
2023/06/13 01:50:31;;;;;;;1999.90;999.90;;;23.50;97.30;;;;;;5053969;28;20099;-68
2023/06/13 01:53:28;;;;;;;1999.90;999.90;;;23.10;97.10;;;;;;5052912;28;20066;-70
2023/06/13 01:56:09;;;;;;;1999.90;999.90;;;22.90;97.80;;;;;;5056676;28;20365;-69
2023/06/13 01:58:44;;;;;;;1999.90;999.90;;;22.50;98.10;;;;;;5050040;28;20100;-69
2023/06/13 02:01:13;;;;;;;1999.90;999.90;;;22.10;98.30;;;;;;5058328;28;20048;-70
2023/06/13 02:03:41;;;;;;;1999.90;999.90;;;22.40;98.70;;;;;;5052459;28;20028;-69
2023/06/13 02:06:08;;;;;;;1999.90;999.90;;;22.30;98.30;;;;;;5041917;28;20037;-70
2023/06/13 02:08:35;;;;;;;1999.90;999.90;;;22.90;98.20;;;;;;5055200;28;20025;-71
2023/06/13 02:11:03;;;;;;;1999.90;999.90;;;24.00;96.90;;;;;;5062414;28;20028;-70
2023/06/13 02:13:30;;;;;;;1999.90;999.90;;;25.00;95.70;;;;;;5053507;28;20116;-70
2023/06/13 02:15:57;;;;;;;1999.90;999.90;;;25.60;94.60;;;;;;5050998;28;20044;-71
2023/06/13 02:18:27;;;;;;;1999.90;999.90;;;26.00;93.90;;;;;;5050969;28;20033;-70
2023/06/13 02:20:55;;;;;;;1999.90;999.90;;;26.10;94.10;;;;;;5058564;28;20032;-70
2023/06/13 02:23:25;;;;;;;1999.90;999.90;;;26.30;93.50;;;;;;5054069;28;20104;-71
2023/06/13 02:25:53;;;;;;;1999.90;999.90;;;26.30;93.30;;;;;;5056721;28;20162;-71
2023/06/13 02:28:20;;;;;;;1999.90;999.90;;;26.20;92.40;;;;;;5052238;28;20034;-70
2023/06/13 02:30:48;;;;;;;1999.90;999.90;;;26.20;92.60;;;;;;5054223;28;20021;-69
2023/06/13 02:33:15;;;;;;;1999.90;999.90;;;26.10;92.60;;;;;;5047864;28;20123;-70
2023/06/13 02:35:43;;;;;;;1999.90;999.90;;;25.80;92.60;;;;;;5050838;28;20025;-70
2023/06/13 02:38:11;;;;;;;1999.90;999.90;;;25.90;92.90;;;;;;5050501;28;20029;-68
2023/06/13 02:40:38;;;;;;;1999.90;999.90;;;26.00;93.10;;;;;;5053722;28;20086;-68
2023/06/13 02:43:06;;;;;;;1999.90;999.90;;;25.50;92.20;;;;;;5054473;28;20036;-69
2023/06/13 02:45:33;;;;;;;1999.90;999.90;;;25.10;92.60;;;;;;5044786;28;20043;-70
2023/06/13 02:48:00;;;;;;;1999.90;999.90;;;24.60;92.90;;;;;;5061792;28;20051;-70
2023/06/13 02:50:28;;;;;;;1999.90;999.90;;;24.30;93.70;;;;;;5057900;28;20112;-68
2023/06/13 02:52:55;;;;;;;1999.90;999.90;;;23.90;93.10;;;;;;5058715;28;20033;-70
2023/06/13 02:55:23;;;;;;;1999.90;999.90;;;23.40;93.90;;;;;;5054795;28;20432;-69
2023/06/13 02:57:50;;;;;;;1999.90;999.90;;;23.20;94.10;;;;;;5050610;28;21603;-69
2023/06/13 03:00:17;;;;;;;1999.90;999.90;;;23.00;94.30;;;;;;5051837;28;20063;-68
2023/06/13 03:02:45;;;;;;;1999.90;999.90;;;22.90;94.20;;;;;;5051001;28;20026;-69
2023/06/13 03:05:16;;;;;;;1999.90;999.90;;;22.80;94.30;;;;;;5046585;28;20427;-68
2023/06/13 03:07:47;;;;;;;1999.90;999.90;;;22.90;94.40;;;;;;5053511;28;20479;-68
2023/06/13 03:10:16;;;;;;;1999.90;999.90;;;23.00;94.60;;;;;;5049713;28;20025;-69
2023/06/13 03:12:43;;;;;;;1999.90;999.90;;;23.20;94.70;;;;;;5049755;28;20043;-71
2023/06/13 03:15:12;;;;;;;1999.90;999.90;;;23.30;94.30;;;;;;5052574;28;20036;-70
2023/06/13 03:17:40;;;;;;;1999.90;999.90;;;23.10;94.40;;;;;;5059459;28;20046;-72
2023/06/13 03:20:09;;;;;;;1999.90;999.90;;;22.80;94.90;;;;;;5062832;28;20025;-70
2023/06/13 03:22:36;;;;;;;1999.90;999.90;;;22.70;95.00;;;;;;5056292;28;20036;-72
2023/06/13 03:25:07;;;;;;;1999.90;999.90;;;22.50;95.10;;;;;;5066799;28;20024;-68
2023/06/13 03:27:35;;;;;;;1999.90;999.90;;;22.20;95.30;;;;;;5056208;28;20087;-70
2023/06/13 03:30:03;;;;;;;1999.90;999.90;;;22.00;95.70;;;;;;5059651;28;20029;-70
2023/06/13 03:32:30;;;;;;;1999.90;999.90;;;21.80;95.90;;;;;;5062333;28;20491;-70
2023/06/13 03:34:57;;;;;;;1999.90;999.90;;;21.50;96.10;;;;;;5058188;28;20044;-70
2023/06/13 03:37:25;;;;;;;1999.90;999.90;;;21.30;96.80;;;;;;5057417;28;20089;-72
2023/06/13 03:39:52;;;;;;;1999.90;999.90;;;21.20;97.00;;;;;;5055067;28;20050;-69
2023/06/13 03:42:19;;;;;;;1999.90;999.90;;;21.10;97.10;;;;;;5060685;28;20029;-69
2023/06/13 03:44:49;;;;;;;1999.90;999.90;;;21.00;96.90;;;;;;5054558;28;20044;-71
2023/06/13 03:47:17;;;;;;;1999.90;999.90;;;20.90;97.30;;;;;;5057855;28;20032;-72
2023/06/13 03:49:44;;;;;;;1999.90;999.90;;;20.90;97.40;;;;;;5060692;28;20020;-69
2023/06/13 03:52:12;;;;;;;1999.90;999.90;;;20.90;97.40;;;;;;5060338;28;20087;-70
2023/06/13 03:54:39;;;;;;;1999.90;999.90;;;20.90;97.40;;;;;;5061108;28;20021;-70
2023/06/13 03:57:07;;;;;;;1999.90;999.90;;;20.80;97.20;;;;;;5064700;28;20103;-70
2023/06/13 03:59:35;;;;;;;1999.90;999.90;;;20.70;97.40;;;;;;5057501;28;20021;-72
2023/06/13 04:02:03;;;;;;;1999.90;999.90;;;20.70;97.60;;;;;;5057220;28;20056;-70
2023/06/13 04:04:32;;;;;;;1999.90;999.90;;;20.70;97.50;;;;;;5066113;28;20021;-71
2023/06/13 04:07:04;;;;;;;1999.90;999.90;;;20.80;97.40;;;;;;5061949;28;20332;-67
2023/06/13 04:09:31;;;;;;;1999.90;999.90;;;20.70;97.40;;;;;;5063237;28;20064;-67
2023/06/13 04:11:58;;;;;;;1999.90;999.90;;;20.60;97.70;;;;;;5062492;28;20024;-68
2023/06/13 04:14:26;;;;;;;1999.90;999.90;;;20.60;97.70;;;;;;5065773;28;20032;-69
2023/06/13 04:16:53;;;;;;;1999.90;999.90;;;20.50;97.90;;;;;;5058500;28;20029;-68
2023/06/13 04:19:21;;;;;;;1999.90;999.90;;;20.40;98.10;;;;;;5051534;28;20029;-68
2023/06/13 04:21:48;;;;;;;1999.90;999.90;;;20.30;98.30;;;;;;5056500;28;20376;-69
2023/06/13 04:24:16;;;;;;;1999.90;999.90;;;20.20;98.20;;;;;;5051987;28;20028;-68
2023/06/13 04:26:46;;;;;;;1999.90;999.90;;;20.20;98.20;;;;;;5064550;28;20467;-70
2023/06/13 04:29:15;;;;;;;1999.90;999.90;;;20.10;98.40;;;;;;5057004;28;20028;-69
2023/06/13 04:31:43;;;;;;;1999.90;999.90;;;20.10;98.00;;;;;;5060031;28;20037;-69
2023/06/13 04:34:11;;;;;;;1999.90;999.90;;;20.10;98.30;;;;;;5057528;28;20440;-70
2023/06/13 04:36:41;;;;;;;1999.90;999.90;;;20.10;97.50;;;;;;5059113;28;20491;-71
2023/06/13 04:39:09;;;;;;;1999.90;999.90;;;20.10;98.00;;;;;;5053890;28;20025;-74
2023/06/13 04:41:38;;;;;;;1999.90;999.90;;;20.10;97.90;;;;;;5061984;28;20105;-68
2023/06/13 04:44:09;;;;;;;1999.90;999.90;;;20.00;97.60;;;;;;5063491;28;20106;-69
2023/06/13 04:46:38;;;;;;;1999.90;999.90;;;20.00;97.30;;;;;;5060136;28;20021;-69
2023/06/13 04:49:06;;;;;;;1999.90;999.90;;;19.80;97.60;;;;;;5052818;28;20039;-70
2023/06/13 04:51:34;;;;;;;1999.90;999.90;;;19.80;97.40;;;;;;5053377;28;20145;-71
2023/06/13 04:54:01;;;;;;;1999.90;999.90;;;19.80;97.20;;;;;;5054033;28;20123;-70
2023/06/13 04:56:29;;;;;;;1999.90;999.90;;;19.80;97.00;;;;;;5056446;28;20029;-70
2023/06/13 04:58:56;;;;;;;1999.90;999.90;;;19.70;97.30;;;;;;5051494;28;20032;-67
2023/06/13 05:01:27;;;;;;;1999.90;999.90;;;19.70;97.60;;;;;;5053487;28;20045;-70
2023/06/13 05:03:55;;;;;;;1999.90;999.90;;;19.70;97.00;;;;;;5051736;28;20029;-70
2023/06/13 05:06:23;;;;;;;1999.90;999.90;;;19.70;97.20;;;;;;5048600;28;20061;-72
2023/06/13 05:08:52;;;;;;;1999.90;999.90;;;19.70;97.00;;;;;;5053940;28;20088;-72
2023/06/13 05:11:19;;;;;;;1999.90;999.90;;;19.60;97.20;;;;;;5058696;28;20093;-71
2023/06/13 05:13:47;;;;;;;1999.90;999.90;;;19.70;97.20;;;;;;5063566;28;20022;-71
2023/06/13 05:16:14;;;;;;;1999.90;999.90;;;19.70;97.20;;;;;;5062212;28;20032;-70
2023/06/13 05:18:42;;;;;;;1999.90;999.90;;;19.70;97.40;;;;;;5055452;28;20491;-71
2023/06/13 05:21:09;;;;;;;1999.90;999.90;;;19.60;97.50;;;;;;5058901;28;20364;-70
2023/06/13 05:23:38;;;;;;;1999.90;999.90;;;19.70;97.10;;;;;;5055825;28;20036;-69
2023/06/13 05:26:05;;;;;;;1999.90;999.90;;;19.60;97.30;;;;;;5059831;28;20048;-69
2023/06/13 05:28:33;;;;;;;1999.90;999.90;;;19.50;96.80;;;;;;5055562;28;20047;-71
2023/06/13 05:31:01;;;;;;;1999.90;999.90;;;19.50;97.00;;;;;;5054311;28;20088;-71
2023/06/13 05:33:28;;;;;;;1999.90;999.90;;;19.50;97.20;;;;;;5044981;28;20025;-69
2023/06/13 05:35:55;;;;;;;1999.90;999.90;;;19.40;96.70;;;;;;5055114;28;20506;-70
2023/06/13 05:38:23;;;;;;;1999.90;999.90;;;19.40;96.90;;;;;;5046695;28;20036;-70
2023/06/13 05:40:50;;;;;;;1999.90;999.90;;;19.30;97.70;;;;;;5058899;28;20020;-69
2023/06/13 05:43:20;;;;;;;1999.90;999.90;;;19.40;98.00;;;;;;5046027;28;20025;-69
2023/06/13 05:45:48;;;;;;;1999.90;999.90;;;19.50;97.80;;;;;;5057071;28;20515;-68
2023/06/13 05:48:16;;;;;;;1999.90;999.90;;;19.50;97.80;;;;;;5059681;28;20105;-68
2023/06/13 05:50:43;;;;;;;1999.90;999.90;;;19.50;97.60;;;;;;5061048;28;20076;-70
2023/06/13 05:53:11;;;;;;;1999.90;999.90;;;19.50;97.70;;;;;;5049494;28;20029;-69
2023/06/13 05:55:38;;;;;;;1999.90;999.90;;;19.50;97.80;;;;;;5058618;28;20029;-68
2023/06/13 05:58:07;;;;;;;1999.90;999.90;;;19.50;97.90;;;;;;5054478;28;20395;-69
2023/06/13 06:00:34;;;;;;;1999.90;999.90;;;19.50;98.20;;;;;;5056185;28;20036;-69
2023/06/13 06:03:01;;;;;;;1999.90;999.90;;;19.40;98.00;;;;;;5055998;28;20472;-69
2023/06/13 06:05:29;;;;;;;1999.90;999.90;;;19.50;97.90;;;;;;5061530;28;20020;-70
2023/06/13 06:07:56;;;;;;;1999.90;999.90;;;19.50;97.80;;;;;;5060138;28;20129;-68
2023/06/13 06:10:24;;;;;;;1999.90;999.90;;;19.50;98.10;;;;;;5059754;28;20107;-70
2023/06/13 06:12:52;;;;;;;1999.90;999.90;;;19.50;98.00;;;;;;5064906;28;20033;-69
2023/06/13 06:15:20;;;;;;;1999.90;999.90;;;19.50;97.90;;;;;;5054311;28;20021;-69
2023/06/13 06:17:47;;;;;;;1999.90;999.90;;;19.50;97.80;;;;;;5055333;28;20739;-73
2023/06/13 06:20:15;;;;;;;1999.90;999.90;;;19.50;98.00;;;;;;5052659;28;20112;-69
2023/06/13 06:22:42;;;;;;;1999.90;999.90;;;19.50;97.80;;;;;;5054773;28;20056;-68
2023/06/13 06:25:12;;;;;;;1999.90;999.90;;;19.50;97.90;;;;;;5048027;28;20488;-68
2023/06/13 06:27:40;;;;;;;1999.90;999.90;;;19.40;97.70;;;;;;5061344;28;20467;-70
2023/06/13 06:30:08;;;;;;;1999.90;999.90;;;19.30;97.80;;;;;;5050970;28;20041;-69
2023/06/13 06:32:36;;;;;;;1999.90;999.90;;;19.20;97.90;;;;;;5059537;28;20027;-70
2023/06/13 06:35:04;;;;;;;1999.90;999.90;;;19.10;98.10;;;;;;5044466;28;20108;-69
2023/06/13 06:37:32;;;;;;;1999.90;999.90;;;18.90;98.30;;;;;;5055350;28;20151;-67
2023/06/13 06:39:59;;;;;;;1999.90;999.90;;;18.70;98.60;;;;;;5049851;28;20116;-69
2023/06/13 06:42:26;;;;;;;1999.90;999.90;;;18.50;98.80;;;;;;5052151;28;20035;-69
2023/06/13 06:44:54;;;;;;;1999.90;999.90;;;18.30;99.10;;;;;;5046919;28;20108;-71
2023/06/13 06:47:21;;;;;;;1999.90;999.90;;;18.10;99.40;;;;;;5051349;28;20035;-72
2023/06/13 06:49:48;;;;;;;1999.90;999.90;;;17.90;99.60;;;;;;5041980;28;20100;-72
2023/06/13 06:52:16;;;;;;;1999.90;999.90;;;17.70;99.80;;;;;;5058637;28;20033;-72
2023/06/13 06:54:43;;;;;;;1999.90;999.90;;;17.60;99.90;;;;;;5052877;28;20029;-74
2023/06/13 06:57:10;;;;;;;1999.90;999.90;;;17.50;99.90;;;;;;5059240;28;20313;-72
2023/06/13 06:59:38;;;;;;;1999.90;999.90;;;17.30;99.90;;;;;;5058649;28;20028;-72
2023/06/13 07:02:05;;;;;;;1999.90;999.90;;;17.20;99.90;;;;;;5058627;28;20495;-74
2023/06/13 07:04:33;;;;;;;1999.90;999.90;;;17.00;99.90;;;;;;5055402;28;20112;-69
2023/06/13 07:07:00;;;;;;;1999.90;999.90;;;16.90;99.90;;;;;;5066072;28;20039;-71
2023/06/13 07:09:28;;;;;;;1999.90;999.90;;;16.70;99.90;;;;;;5064790;28;20017;-71
2023/06/13 07:11:57;;;;;;;1999.90;999.90;;;16.70;99.90;;;;;;5053523;28;20112;-72
2023/06/13 07:14:25;;;;;;;1999.90;999.90;;;16.50;99.90;;;;;;5054680;28;20086;-76
2023/06/13 07:16:56;;;;;;;1999.90;999.90;;;16.40;99.90;;;;;;5064119;28;20028;-71
2023/06/13 07:19:23;;;;;;;1999.90;999.90;;;16.40;99.90;;;;;;5050113;28;20055;-70
2023/06/13 07:21:51;;;;;;;1999.90;999.90;;;16.30;99.90;;;;;;5059346;28;20024;-71
2023/06/13 07:24:18;;;;;;;1999.90;999.90;;;16.30;99.90;;;;;;5060573;28;20037;-71
2023/06/13 07:26:46;;;;;;;1999.90;999.90;;;16.30;99.90;;;;;;5059659;28;20029;-72
2023/06/13 07:29:13;;;;;;;1999.90;999.90;;;16.30;99.90;;;;;;5055680;28;20037;-75
2023/06/13 07:31:40;;;;;;;1999.90;999.90;;;16.40;99.90;;;;;;5066623;28;20138;-70
2023/06/13 07:34:08;;;;;;;1999.90;999.90;;;16.40;99.90;;;;;;5050314;28;20041;-78
2023/06/13 07:36:37;;;;;;;1999.90;999.90;;;16.40;99.90;;;;;;5053513;28;20020;-73
2023/06/13 07:39:12;;;;;;;1999.90;999.90;;;16.50;99.90;;;;;;5048991;28;20025;-73
2023/06/13 07:41:39;;;;;;;1999.90;999.90;;;16.50;99.90;;;;;;5050788;28;20025;-75
2023/06/13 07:44:10;;;;;;;1999.90;999.90;;;16.40;99.90;;;;;;5057360;28;20035;-72
2023/06/13 07:46:37;;;;;;;1999.90;999.90;;;16.30;99.90;;;;;;5058841;28;20025;-70
2023/06/13 07:49:05;;;;;;;1999.90;999.90;;;16.30;99.90;;;;;;5053059;28;20139;-70
2023/06/13 07:51:32;;;;;;;1999.90;999.90;;;16.20;99.90;;;;;;5054085;28;20036;-70
2023/06/13 07:54:00;;;;;;;1999.90;999.90;;;16.10;99.90;;;;;;5057886;28;20056;-72
2023/06/13 07:56:27;;;;;;;1999.90;999.90;;;15.90;99.90;;;;;;5052165;28;20045;-74
2023/06/13 07:58:56;;;;;;;1999.90;999.90;;;15.80;99.90;;;;;;5050359;28;20033;-71
2023/06/13 08:01:23;;;;;;;1999.90;999.90;;;15.70;99.90;;;;;;5058061;28;20044;-70
2023/06/13 08:03:51;;;;;;;1999.90;999.90;;;15.60;99.90;;;;;;5051494;28;20032;-74
2023/06/13 08:06:18;;;;;;;1999.90;999.90;;;15.70;99.90;;;;;;5054812;28;20024;-73
2023/06/13 08:08:45;;;;;;;1999.90;999.90;;;15.70;99.90;;;;;;5054325;28;20061;-73
2023/06/13 08:11:12;;;;;;;1999.90;999.90;;;15.70;99.90;;;;;;5052141;28;20096;-72
2023/06/13 08:13:40;;;;;;;1999.90;999.90;;;15.80;99.90;;;;;;5053946;28;20121;-73
2023/06/13 08:16:07;;;;;;;1999.90;999.90;;;15.80;99.90;;;;;;5058984;28;20324;-72
2023/06/13 08:18:36;;;;;;;1999.90;999.90;;;15.90;99.90;;;;;;5051028;28;20160;-73
2023/06/13 08:21:04;;;;;;;1999.90;999.90;;;15.90;99.90;;;;;;5056301;28;20047;-74
2023/06/13 08:23:32;;;;;;;1999.90;999.90;;;16.00;99.60;;;;;;5050079;28;20038;-73
2023/06/13 08:25:59;;;;;;;1999.90;999.90;;;15.90;99.40;;;;;;5052772;28;20095;-73
2023/06/13 08:28:26;;;;;;;1999.90;999.90;;;15.90;99.30;;;;;;5053136;28;20069;-72
2023/06/13 08:30:54;;;;;;;1999.90;999.90;;;15.90;99.40;;;;;;5054236;28;20141;-72
2023/06/13 08:33:21;;;;;;;1999.90;999.90;;;15.80;99.30;;;;;;5055107;28;20028;-72
2023/06/13 08:35:48;;;;;;;1999.90;999.90;;;15.80;99.40;;;;;;5066456;28;20120;-72
2023/06/13 08:38:19;;;;;;;1999.90;999.90;;;15.80;99.00;;;;;;5060371;28;20030;-72
2023/06/13 08:40:46;;;;;;;1999.90;999.90;;;15.80;99.00;;;;;;5061212;28;20027;-73
2023/06/13 08:43:14;;;;;;;1999.90;999.90;;;15.80;99.10;;;;;;5057416;28;20029;-73
2023/06/13 08:45:41;;;;;;;1999.90;999.90;;;15.80;99.00;;;;;;5057100;28;20017;-71
2023/06/13 08:48:09;;;;;;;1999.90;999.90;;;15.80;98.70;;;;;;5059038;28;20037;-75
2023/06/13 08:50:37;;;;;;;1999.90;999.90;;;15.70;98.70;;;;;;5059547;28;20077;-72
2023/06/13 08:53:05;;;;;;;1999.90;999.90;;;15.70;98.90;;;;;;5060386;28;20353;-71
2023/06/13 08:55:37;;;;;;;1999.90;999.90;;;15.60;98.90;;;;;;5052814;28;20017;-73
2023/06/13 08:58:06;;;;;;;1999.90;999.90;;;15.60;99.00;;;;;;5057426;28;20111;-73
2023/06/13 09:00:35;;;;;;;1999.90;999.90;;;15.50;99.00;;;;;;5056040;28;20021;-72
2023/06/13 09:03:06;;;;;;;1999.90;999.90;;;15.50;99.20;;;;;;5058296;28;20059;-74
2023/06/13 09:05:35;;;;;;;1999.90;999.90;;;15.40;99.60;;;;;;5059488;28;20530;-72
2023/06/13 09:08:03;;;;;;;1999.90;999.90;;;15.40;99.80;;;;;;5055680;28;20040;-73
2023/06/13 09:10:30;;;;;;;1999.90;999.90;;;15.30;99.90;;;;;;5059125;28;20031;-74
2023/06/13 09:12:59;;;;;;;1999.90;999.90;;;15.30;99.90;;;;;;5045878;28;20486;-74
2023/06/13 09:15:30;;;;;;;1999.90;999.90;;;15.20;99.90;;;;;;5063669;28;20051;-72
2023/06/13 09:17:57;;;;;;;1999.90;999.90;;;15.20;99.90;;;;;;5063180;28;20118;-73
2023/06/13 09:20:27;;;;;;;1999.90;999.90;;;15.00;99.90;;;;;;5055979;28;20025;-75
2023/06/13 09:22:54;;;;;;;1999.90;999.90;;;14.90;99.90;;;;;;5069958;28;20048;-73
2023/06/13 09:25:23;;;;;;;1999.90;999.90;;;14.80;99.90;;;;;;5055504;28;20474;-73
2023/06/13 09:27:51;;;;;;;1999.90;999.90;;;14.80;99.90;;;;;;5060976;28;20447;-74
2023/06/13 09:30:18;;;;;;;1999.90;999.90;;;14.70;99.90;;;;;;5055948;28;20104;-73
2023/06/13 09:32:53;;;;;;;1999.90;999.90;;;14.70;99.90;;;;;;5059796;28;20025;-74
2023/06/13 09:35:20;;;;;;;1999.90;999.90;;;14.60;99.90;;;;;;5060406;28;20032;-73
2023/06/13 09:37:48;;;;;;;1999.90;999.90;;;14.50;99.90;;;;;;5053114;28;20448;-73
2023/06/13 09:40:17;;;;;;;1999.90;999.90;;;14.50;99.90;;;;;;5056922;28;20040;-73
2023/06/13 09:42:44;;;;;;;1999.90;999.90;;;14.50;99.90;;;;;;5053207;28;20029;-73
2023/06/13 09:45:14;;;;;;;1999.90;999.90;;;14.50;99.90;;;;;;5051909;28;20602;-74
2023/06/13 09:47:42;;;;;;;1999.90;999.90;;;14.50;99.90;;;;;;5065287;28;20061;-74
2023/06/13 09:50:10;;;;;;;1999.90;999.90;;;14.40;99.90;;;;;;5051874;28;20476;-73
2023/06/13 09:52:38;;;;;;;1999.90;999.90;;;14.40;99.90;;;;;;5053216;28;20425;-73
2023/06/13 09:55:06;;;;;;;1999.90;999.90;;;14.40;99.90;;;;;;5052700;28;20060;-75
2023/06/13 09:57:34;;;;;;;1999.90;999.90;;;14.30;99.90;;;;;;5056522;28;20028;-72
2023/06/13 10:00:01;;;;;;;1999.90;999.90;;;14.30;99.90;;;;;;5061213;28;20049;-73
2023/06/13 10:02:28;;;;;;;1999.90;999.90;;;14.30;99.90;;;;;;5058114;28;20594;-76
2023/06/13 10:04:56;;;;;;;1999.90;999.90;;;14.20;99.90;;;;;;5049367;28;20090;-73
2023/06/13 10:07:23;;;;;;;1999.90;999.90;;;14.20;99.90;;;;;;5057568;28;20075;-73
2023/06/13 10:09:51;;;;;;;1999.90;999.90;;;14.10;99.90;;;;;;5059936;28;20108;-71
2023/06/13 10:12:24;;;;;;;1999.90;999.90;;;14.20;99.90;;;;;;5063149;28;20074;-73
2023/06/13 10:14:59;;;;;;;1999.90;999.90;;;14.20;99.90;;;;;;5051643;28;20540;-72
2023/06/13 10:17:32;;;;;;;1999.90;999.90;;;14.10;99.90;;;;;;5060975;28;20455;-73
2023/06/13 10:20:07;;;;;;;1999.90;999.90;;;14.10;99.90;;;;;;5058711;28;20032;-72
2023/06/13 10:22:35;;;;;;;1999.90;999.90;;;14.10;99.90;;;;;;5053116;28;20025;-73
2023/06/13 10:25:03;;;;;;;1999.90;999.90;;;14.10;99.90;;;;;;5050260;28;20124;-72
2023/06/13 10:27:32;;;;;;;1999.90;999.90;;;14.10;99.90;;;;;;5054061;28;20112;-71
2023/06/13 10:30:32;;;;;;;1999.90;999.90;;;14.00;99.90;;;;;;5059259;28;20032;-78
2023/06/13 10:33:56;;;;;;;1999.90;999.90;;;14.00;99.90;;;;;;5059835;28;20059;-72
2023/06/13 10:36:35;;;;;;;1999.90;999.90;;;14.00;99.90;;;;;;4997716;28;20134;-74
2023/06/13 10:39:20;;;;;;;1999.90;999.90;;;13.80;99.90;;;;;;4991548;28;20089;-73
2023/06/13 10:41:52;;;;;;;1999.90;999.90;;;13.70;99.90;;;;;;5038314;28;20073;-72
2023/06/13 10:44:24;;;;;;;1999.90;999.90;;;13.60;99.90;;;;;;5058754;28;20027;-70
2023/06/13 10:46:52;;;;;;;1999.90;999.90;;;13.60;99.90;;;;;;5058073;28;20041;-71
2023/06/13 10:49:20;;;;;;;1999.90;999.90;;;13.60;99.90;;;;;;5061911;28;20033;-70
2023/06/13 10:51:47;;;;;;;1999.90;999.90;;;13.50;99.90;;;;;;5059653;28;20091;-74
2023/06/13 10:54:15;;;;;;;1999.90;999.90;;;13.50;99.90;;;;;;5061203;28;20107;-71
2023/06/13 10:56:44;;;;;;;1999.90;999.90;;;13.50;99.90;;;;;;5060041;28;20039;-70
2023/06/13 10:59:19;;;;;;;1999.90;999.90;;;13.40;99.90;;;;;;5058552;28;20116;-69
2023/06/13 11:01:47;;;;;;;1999.90;999.90;;;13.20;99.90;;;;;;5066969;28;20103;-71
2023/06/13 11:04:17;;;;;;;1999.90;999.90;;;13.10;99.90;;;;;;5054199;28;20036;-72
2023/06/13 11:06:46;;;;;;;1999.90;999.90;;;13.00;99.90;;;;;;5061751;28;20067;-71
2023/06/13 11:09:27;;;;;;;1999.90;999.90;;;12.90;99.90;;;;;;5058927;28;20032;-73
2023/06/13 11:12:00;;;;;;;1999.90;999.90;;;12.80;99.90;;;;;;5058613;28;20391;-72
2023/06/13 11:14:48;;;;;;;1999.90;999.90;;;12.70;99.90;;;;;;5052222;28;20365;-74
2023/06/13 11:17:15;;;;;;;1999.90;999.90;;;12.50;99.90;;;;;;5065489;28;20025;-72
2023/06/13 11:19:42;;;;;;;1999.90;999.90;;;12.40;99.90;;;;;;5047571;28;20037;-73
2023/06/13 11:22:13;;;;;;;1999.90;999.90;;;12.30;99.90;;;;;;5046373;28;20036;-70
2023/06/13 11:24:41;;;;;;;1999.90;999.90;;;12.20;99.90;;;;;;5054163;28;20029;-72
2023/06/13 11:27:11;;;;;;;1999.90;999.90;;;12.20;99.90;;;;;;5039658;28;20083;-70
2023/06/13 11:29:38;;;;;;;1999.90;999.90;;;12.00;99.90;;;;;;5049607;28;20471;-70
2023/06/13 11:32:08;;;;;;;1999.90;999.90;;;11.90;99.90;;;;;;5056861;28;20029;-71
2023/06/13 11:34:43;;;;;;;1999.90;999.90;;;11.80;99.90;;;;;;5054218;28;20113;-71
2023/06/13 11:37:31;;;;;;;1999.90;999.90;;;11.80;99.90;;;;;;5053219;28;20387;-70
2023/06/13 11:40:00;;;;;;;1999.90;999.90;;;11.70;99.90;;;;;;5048411;28;20349;-72
2023/06/13 11:42:29;;;;;;;1999.90;999.90;;;11.60;99.90;;;;;;5055793;28;20025;-72
2023/06/13 11:44:57;;;;;;;1999.90;999.90;;;11.60;99.90;;;;;;5055213;28;20036;-70
2023/06/13 11:47:24;;;;;;;1999.90;999.90;;;11.50;99.90;;;;;;5069883;28;20517;-70
2023/06/13 11:49:56;;;;;;;1999.90;999.90;;;11.50;99.90;;;;;;5061911;28;20032;-70
2023/06/13 11:52:24;;;;;;;1999.90;999.90;;;11.40;99.90;;;;;;5052363;28;20483;-72
2023/06/13 11:54:52;;;;;;;1999.90;999.90;;;11.40;99.90;;;;;;5056019;28;20028;-72
2023/06/13 11:57:20;;;;;;;1999.90;999.90;;;11.40;99.90;;;;;;5059003;28;20419;-72
2023/06/13 12:00:00;;;;;;;1999.90;999.90;;;11.30;99.90;;;;;;5055219;28;20082;-71
2023/06/13 12:02:28;;;;;;;1999.90;999.90;;;11.30;99.90;;;;;;5060261;28;20048;-74
2023/06/13 12:04:56;;;;;;;1999.90;999.90;;;11.20;99.90;;;;;;5050477;28;20029;-73
2023/06/13 12:07:23;;;;;;;1999.90;999.90;;;11.10;99.90;;;;;;5064584;28;20102;-73
2023/06/13 12:09:52;;;;;;;1999.90;999.90;;;11.10;99.90;;;;;;5056014;28;20032;-74